sensor_id;sensor_type;location;lat;lon;timestamp;temperature;humidity
62339;DHT22;48368;53.406;6.214;2022-07-24T00:00:55;15.40;99.90
62339;DHT22;48368;53.406;6.214;2022-07-24T00:03:22;15.40;99.90
62339;DHT22;48368;53.406;6.214;2022-07-24T00:05:47;15.40;99.90
62339;DHT22;48368;53.406;6.214;2022-07-24T00:08:13;15.40;99.90
62339;DHT22;48368;53.406;6.214;2022-07-24T00:10:38;15.40;99.90
62339;DHT22;48368;53.406;6.214;2022-07-24T00:13:04;15.40;99.90
62339;DHT22;48368;53.406;6.214;2022-07-24T00:15:30;15.40;99.90
62339;DHT22;48368;53.406;6.214;2022-07-24T00:17:56;15.40;99.90
62339;DHT22;48368;53.406;6.214;2022-07-24T00:20:22;15.30;99.90
62339;DHT22;48368;53.406;6.214;2022-07-24T00:22:48;15.30;99.90
62339;DHT22;48368;53.406;6.214;2022-07-24T00:25:14;15.30;99.90
62339;DHT22;48368;53.406;6.214;2022-07-24T00:27:40;15.20;99.90
62339;DHT22;48368;53.406;6.214;2022-07-24T00:30:06;15.20;99.90
62339;DHT22;48368;53.406;6.214;2022-07-24T00:32:32;15.20;99.90
62339;DHT22;48368;53.406;6.214;2022-07-24T00:34:58;15.30;99.90
62339;DHT22;48368;53.406;6.214;2022-07-24T00:37:23;15.30;99.90
62339;DHT22;48368;53.406;6.214;2022-07-24T00:39:49;15.30;99.90
62339;DHT22;48368;53.406;6.214;2022-07-24T00:42:15;15.20;99.90
62339;DHT22;48368;53.406;6.214;2022-07-24T00:44:40;15.30;99.90
62339;DHT22;48368;53.406;6.214;2022-07-24T00:47:06;15.30;99.90
62339;DHT22;48368;53.406;6.214;2022-07-24T00:49:32;15.30;99.90
62339;DHT22;48368;53.406;6.214;2022-07-24T00:51:57;15.30;99.90
62339;DHT22;48368;53.406;6.214;2022-07-24T00:54:24;15.30;99.90
62339;DHT22;48368;53.406;6.214;2022-07-24T00:56:51;15.30;99.90
62339;DHT22;48368;53.406;6.214;2022-07-24T00:59:18;15.30;99.90
62339;DHT22;48368;53.406;6.214;2022-07-24T01:01:46;15.20;99.90
62339;DHT22;48368;53.406;6.214;2022-07-24T01:04:12;15.30;99.90
62339;DHT22;48368;53.406;6.214;2022-07-24T01:06:40;15.30;99.90
62339;DHT22;48368;53.406;6.214;2022-07-24T01:09:07;15.20;99.90
62339;DHT22;48368;53.406;6.214;2022-07-24T01:11:33;15.20;99.90
62339;DHT22;48368;53.406;6.214;2022-07-24T01:13:59;15.20;99.90
62339;DHT22;48368;53.406;6.214;2022-07-24T01:16:25;15.20;99.90
62339;DHT22;48368;53.406;6.214;2022-07-24T01:18:51;15.20;99.90
62339;DHT22;48368;53.406;6.214;2022-07-24T01:21:16;15.20;99.90
62339;DHT22;48368;53.406;6.214;2022-07-24T01:23:42;15.20;99.90
62339;DHT22;48368;53.406;6.214;2022-07-24T01:26:08;15.10;99.90
62339;DHT22;48368;53.406;6.214;2022-07-24T01:28:34;15.20;99.90
62339;DHT22;48368;53.406;6.214;2022-07-24T01:31:00;15.10;99.90
62339;DHT22;48368;53.406;6.214;2022-07-24T01:33:25;15.10;99.90
62339;DHT22;48368;53.406;6.214;2022-07-24T01:35:51;15.10;99.90
62339;DHT22;48368;53.406;6.214;2022-07-24T01:38:18;15.10;99.90
62339;DHT22;48368;53.406;6.214;2022-07-24T01:40:44;15.10;99.90
62339;DHT22;48368;53.406;6.214;2022-07-24T01:43:09;15.10;99.90
62339;DHT22;48368;53.406;6.214;2022-07-24T01:45:35;15.10;99.90
62339;DHT22;48368;53.406;6.214;2022-07-24T01:48:01;15.10;99.90
62339;DHT22;48368;53.406;6.214;2022-07-24T01:50:28;15.10;99.90
62339;DHT22;48368;53.406;6.214;2022-07-24T01:52:54;15.10;99.90
62339;DHT22;48368;53.406;6.214;2022-07-24T01:55:20;15.10;99.90
62339;DHT22;48368;53.406;6.214;2022-07-24T01:57:47;15.00;99.90
62339;DHT22;48368;53.406;6.214;2022-07-24T02:00:13;15.00;99.90
62339;DHT22;48368;53.406;6.214;2022-07-24T02:02:40;15.00;99.90
62339;DHT22;48368;53.406;6.214;2022-07-24T02:05:07;14.90;99.90
62339;DHT22;48368;53.406;6.214;2022-07-24T02:07:33;15.00;99.90
62339;DHT22;48368;53.406;6.214;2022-07-24T02:09:59;14.90;99.90
62339;DHT22;48368;53.406;6.214;2022-07-24T02:12:25;14.90;99.90
62339;DHT22;48368;53.406;6.214;2022-07-24T02:14:51;14.90;99.90
62339;DHT22;48368;53.406;6.214;2022-07-24T02:17:16;14.90;99.90
62339;DHT22;48368;53.406;6.214;2022-07-24T02:19:42;14.90;99.90
62339;DHT22;48368;53.406;6.214;2022-07-24T02:22:07;14.90;99.90
62339;DHT22;48368;53.406;6.214;2022-07-24T02:24:33;15.00;99.90
62339;DHT22;48368;53.406;6.214;2022-07-24T02:26:59;14.90;99.90
62339;DHT22;48368;53.406;6.214;2022-07-24T02:29:24;15.00;99.90
62339;DHT22;48368;53.406;6.214;2022-07-24T02:31:50;14.90;99.90
62339;DHT22;48368;53.406;6.214;2022-07-24T02:34:15;14.90;99.90
62339;DHT22;48368;53.406;6.214;2022-07-24T02:36:41;15.00;99.90
62339;DHT22;48368;53.406;6.214;2022-07-24T02:39:07;15.00;99.90
62339;DHT22;48368;53.406;6.214;2022-07-24T02:41:32;15.00;99.90
62339;DHT22;48368;53.406;6.214;2022-07-24T02:43:58;15.00;99.90
62339;DHT22;48368;53.406;6.214;2022-07-24T02:46:24;15.00;99.90
62339;DHT22;48368;53.406;6.214;2022-07-24T02:48:49;15.00;99.90
62339;DHT22;48368;53.406;6.214;2022-07-24T02:51:15;15.00;99.90
62339;DHT22;48368;53.406;6.214;2022-07-24T02:53:41;15.10;99.90
62339;DHT22;48368;53.406;6.214;2022-07-24T02:56:07;15.10;99.90
62339;DHT22;48368;53.406;6.214;2022-07-24T02:58:32;15.00;99.90
62339;DHT22;48368;53.406;6.214;2022-07-24T03:00:58;15.00;99.90
62339;DHT22;48368;53.406;6.214;2022-07-24T03:03:24;15.00;99.90
62339;DHT22;48368;53.406;6.214;2022-07-24T03:05:49;15.00;99.90
62339;DHT22;48368;53.406;6.214;2022-07-24T03:08:15;15.00;99.90
62339;DHT22;48368;53.406;6.214;2022-07-24T03:10:41;14.90;99.90
62339;DHT22;48368;53.406;6.214;2022-07-24T03:13:07;15.00;99.90
62339;DHT22;48368;53.406;6.214;2022-07-24T03:15:33;14.90;99.90
62339;DHT22;48368;53.406;6.214;2022-07-24T03:17:59;14.90;99.90
62339;DHT22;48368;53.406;6.214;2022-07-24T03:20:27;14.90;99.90
62339;DHT22;48368;53.406;6.214;2022-07-24T03:22:54;14.90;99.90
62339;DHT22;48368;53.406;6.214;2022-07-24T03:25:20;14.90;99.90
62339;DHT22;48368;53.406;6.214;2022-07-24T03:27:46;14.90;99.90
62339;DHT22;48368;53.406;6.214;2022-07-24T03:30:13;14.90;99.90
62339;DHT22;48368;53.406;6.214;2022-07-24T03:32:40;15.00;99.90
62339;DHT22;48368;53.406;6.214;2022-07-24T03:35:05;14.90;99.90
62339;DHT22;48368;53.406;6.214;2022-07-24T03:37:34;14.90;99.90
62339;DHT22;48368;53.406;6.214;2022-07-24T03:40:00;15.00;99.90
62339;DHT22;48368;53.406;6.214;2022-07-24T03:42:26;15.00;99.90
62339;DHT22;48368;53.406;6.214;2022-07-24T03:44:51;15.00;99.90
62339;DHT22;48368;53.406;6.214;2022-07-24T03:47:17;15.00;99.90
62339;DHT22;48368;53.406;6.214;2022-07-24T03:49:43;15.00;99.90
62339;DHT22;48368;53.406;6.214;2022-07-24T03:52:08;15.10;99.90
62339;DHT22;48368;53.406;6.214;2022-07-24T03:54:34;15.00;99.90
62339;DHT22;48368;53.406;6.214;2022-07-24T03:56:59;15.10;99.90
62339;DHT22;48368;53.406;6.214;2022-07-24T03:59:25;15.10;99.90
62339;DHT22;48368;53.406;6.214;2022-07-24T04:01:51;15.00;99.90
62339;DHT22;48368;53.406;6.214;2022-07-24T04:04:17;15.10;99.90
62339;DHT22;48368;53.406;6.214;2022-07-24T04:06:43;15.10;99.90
62339;DHT22;48368;53.406;6.214;2022-07-24T04:09:09;15.10;99.90
62339;DHT22;48368;53.406;6.214;2022-07-24T04:11:34;15.10;99.90
62339;DHT22;48368;53.406;6.214;2022-07-24T04:14:00;15.20;99.90
62339;DHT22;48368;53.406;6.214;2022-07-24T04:16:26;15.20;99.90
62339;DHT22;48368;53.406;6.214;2022-07-24T04:18:52;15.20;99.90
62339;DHT22;48368;53.406;6.214;2022-07-24T04:21:17;15.20;99.90
62339;DHT22;48368;53.406;6.214;2022-07-24T04:23:43;15.30;99.90
62339;DHT22;48368;53.406;6.214;2022-07-24T04:26:09;15.30;99.90
62339;DHT22;48368;53.406;6.214;2022-07-24T04:28:35;15.40;99.90
62339;DHT22;48368;53.406;6.214;2022-07-24T04:31:01;15.30;99.90
62339;DHT22;48368;53.406;6.214;2022-07-24T04:33:27;15.40;99.90
62339;DHT22;48368;53.406;6.214;2022-07-24T04:35:53;15.40;99.90
62339;DHT22;48368;53.406;6.214;2022-07-24T04:38:18;15.50;99.90
62339;DHT22;48368;53.406;6.214;2022-07-24T04:40:44;15.50;99.90
62339;DHT22;48368;53.406;6.214;2022-07-24T04:43:09;15.50;99.90
62339;DHT22;48368;53.406;6.214;2022-07-24T04:45:35;15.60;99.90
62339;DHT22;48368;53.406;6.214;2022-07-24T04:48:01;15.60;99.90
62339;DHT22;48368;53.406;6.214;2022-07-24T04:50:27;15.70;99.90
62339;DHT22;48368;53.406;6.214;2022-07-24T04:52:53;15.70;99.90
62339;DHT22;48368;53.406;6.214;2022-07-24T04:55:18;15.70;99.90
62339;DHT22;48368;53.406;6.214;2022-07-24T04:57:44;15.70;99.90
62339;DHT22;48368;53.406;6.214;2022-07-24T05:00:11;15.80;99.90
62339;DHT22;48368;53.406;6.214;2022-07-24T05:02:38;15.80;99.90
62339;DHT22;48368;53.406;6.214;2022-07-24T05:05:04;15.80;99.90
62339;DHT22;48368;53.406;6.214;2022-07-24T05:07:30;15.80;99.90
62339;DHT22;48368;53.406;6.214;2022-07-24T05:09:56;15.80;99.90
62339;DHT22;48368;53.406;6.214;2022-07-24T05:12:23;15.90;99.90
62339;DHT22;48368;53.406;6.214;2022-07-24T05:14:48;15.90;99.90
62339;DHT22;48368;53.406;6.214;2022-07-24T05:17:14;16.00;99.90
62339;DHT22;48368;53.406;6.214;2022-07-24T05:19:40;16.10;99.90
62339;DHT22;48368;53.406;6.214;2022-07-24T05:22:06;16.10;99.90
62339;DHT22;48368;53.406;6.214;2022-07-24T05:24:31;16.30;99.90
62339;DHT22;48368;53.406;6.214;2022-07-24T05:26:57;16.30;99.90
62339;DHT22;48368;53.406;6.214;2022-07-24T05:29:23;16.40;99.90
62339;DHT22;48368;53.406;6.214;2022-07-24T05:31:48;16.50;99.90
62339;DHT22;48368;53.406;6.214;2022-07-24T05:34:14;16.60;99.90
62339;DHT22;48368;53.406;6.214;2022-07-24T05:36:40;16.70;99.90
62339;DHT22;48368;53.406;6.214;2022-07-24T05:39:06;16.70;99.90
62339;DHT22;48368;53.406;6.214;2022-07-24T05:41:31;16.90;99.90
62339;DHT22;48368;53.406;6.214;2022-07-24T05:43:57;17.00;99.90
62339;DHT22;48368;53.406;6.214;2022-07-24T05:46:23;17.10;99.90
62339;DHT22;48368;53.406;6.214;2022-07-24T05:48:49;17.30;99.90
62339;DHT22;48368;53.406;6.214;2022-07-24T05:51:15;17.40;99.90
62339;DHT22;48368;53.406;6.214;2022-07-24T05:53:40;17.60;99.90
62339;DHT22;48368;53.406;6.214;2022-07-24T05:56:06;17.80;99.90
62339;DHT22;48368;53.406;6.214;2022-07-24T05:58:32;17.90;99.90
62339;DHT22;48368;53.406;6.214;2022-07-24T06:00:57;18.00;99.90
62339;DHT22;48368;53.406;6.214;2022-07-24T06:03:23;18.00;99.90
62339;DHT22;48368;53.406;6.214;2022-07-24T06:05:49;17.90;99.90
62339;DHT22;48368;53.406;6.214;2022-07-24T06:08:14;17.80;99.90
62339;DHT22;48368;53.406;6.214;2022-07-24T06:10:40;17.70;99.90
62339;DHT22;48368;53.406;6.214;2022-07-24T06:13:06;17.60;99.90
62339;DHT22;48368;53.406;6.214;2022-07-24T06:15:32;17.60;99.90
62339;DHT22;48368;53.406;6.214;2022-07-24T06:17:57;17.90;99.90
62339;DHT22;48368;53.406;6.214;2022-07-24T06:20:23;18.10;99.90
62339;DHT22;48368;53.406;6.214;2022-07-24T06:22:49;18.30;99.90
62339;DHT22;48368;53.406;6.214;2022-07-24T06:25:16;18.50;99.90
62339;DHT22;48368;53.406;6.214;2022-07-24T06:27:44;18.80;99.90
62339;DHT22;48368;53.406;6.214;2022-07-24T06:30:21;18.80;99.90
62339;DHT22;48368;53.406;6.214;2022-07-24T06:32:48;19.00;99.90
62339;DHT22;48368;53.406;6.214;2022-07-24T06:35:18;19.10;99.90
62339;DHT22;48368;53.406;6.214;2022-07-24T06:37:43;19.30;99.90
62339;DHT22;48368;53.406;6.214;2022-07-24T06:40:09;19.40;99.90
62339;DHT22;48368;53.406;6.214;2022-07-24T06:42:35;19.60;99.90
62339;DHT22;48368;53.406;6.214;2022-07-24T06:45:01;19.80;99.90
62339;DHT22;48368;53.406;6.214;2022-07-24T06:47:27;19.90;99.90
62339;DHT22;48368;53.406;6.214;2022-07-24T06:49:53;20.10;99.90
62339;DHT22;48368;53.406;6.214;2022-07-24T06:52:19;20.20;99.90
62339;DHT22;48368;53.406;6.214;2022-07-24T06:54:45;20.40;99.90
62339;DHT22;48368;53.406;6.214;2022-07-24T06:57:11;20.70;99.90
62339;DHT22;48368;53.406;6.214;2022-07-24T06:59:36;20.90;99.90
62339;DHT22;48368;53.406;6.214;2022-07-24T07:02:02;21.10;99.90
62339;DHT22;48368;53.406;6.214;2022-07-24T07:04:28;21.20;99.90
62339;DHT22;48368;53.406;6.214;2022-07-24T07:06:54;21.30;99.90
62339;DHT22;48368;53.406;6.214;2022-07-24T07:09:19;21.30;99.90
62339;DHT22;48368;53.406;6.214;2022-07-24T07:11:45;21.30;99.90
62339;DHT22;48368;53.406;6.214;2022-07-24T07:14:11;21.30;99.90
62339;DHT22;48368;53.406;6.214;2022-07-24T07:16:36;21.40;99.90
62339;DHT22;48368;53.406;6.214;2022-07-24T07:19:02;21.30;99.90
62339;DHT22;48368;53.406;6.214;2022-07-24T07:21:28;21.40;99.90
62339;DHT22;48368;53.406;6.214;2022-07-24T07:23:53;21.60;99.90
62339;DHT22;48368;53.406;6.214;2022-07-24T07:26:19;21.60;99.90
62339;DHT22;48368;53.406;6.214;2022-07-24T07:28:45;21.50;99.90
62339;DHT22;48368;53.406;6.214;2022-07-24T07:31:10;21.40;99.90
62339;DHT22;48368;53.406;6.214;2022-07-24T07:33:36;21.20;99.90
62339;DHT22;48368;53.406;6.214;2022-07-24T07:36:02;21.20;99.90
62339;DHT22;48368;53.406;6.214;2022-07-24T07:38:28;21.10;99.90
62339;DHT22;48368;53.406;6.214;2022-07-24T07:40:53;21.00;99.90
62339;DHT22;48368;53.406;6.214;2022-07-24T07:43:19;21.00;99.90
62339;DHT22;48368;53.406;6.214;2022-07-24T07:45:44;21.00;99.90
62339;DHT22;48368;53.406;6.214;2022-07-24T07:48:11;21.00;99.90
62339;DHT22;48368;53.406;6.214;2022-07-24T07:50:37;20.90;99.90
62339;DHT22;48368;53.406;6.214;2022-07-24T07:53:02;20.80;99.90
62339;DHT22;48368;53.406;6.214;2022-07-24T07:55:28;20.80;99.90
62339;DHT22;48368;53.406;6.214;2022-07-24T07:57:54;20.80;99.90
62339;DHT22;48368;53.406;6.214;2022-07-24T08:00:20;20.70;99.90
62339;DHT22;48368;53.406;6.214;2022-07-24T08:02:45;20.70;99.90
62339;DHT22;48368;53.406;6.214;2022-07-24T08:05:11;20.70;99.90
62339;DHT22;48368;53.406;6.214;2022-07-24T08:07:37;20.70;99.90
62339;DHT22;48368;53.406;6.214;2022-07-24T08:10:05;20.80;99.90
62339;DHT22;48368;53.406;6.214;2022-07-24T08:12:31;20.80;99.90
62339;DHT22;48368;53.406;6.214;2022-07-24T08:14:57;20.80;99.90
62339;DHT22;48368;53.406;6.214;2022-07-24T08:17:22;20.90;99.90
62339;DHT22;48368;53.406;6.214;2022-07-24T08:19:48;20.80;99.90
62339;DHT22;48368;53.406;6.214;2022-07-24T08:22:14;20.80;99.90
62339;DHT22;48368;53.406;6.214;2022-07-24T08:24:39;20.80;99.90
62339;DHT22;48368;53.406;6.214;2022-07-24T08:27:05;20.80;99.90
62339;DHT22;48368;53.406;6.214;2022-07-24T08:29:31;20.90;99.90
62339;DHT22;48368;53.406;6.214;2022-07-24T08:31:57;20.90;99.90
62339;DHT22;48368;53.406;6.214;2022-07-24T08:34:22;20.90;99.90
62339;DHT22;48368;53.406;6.214;2022-07-24T08:36:49;20.90;99.90
62339;DHT22;48368;53.406;6.214;2022-07-24T08:39:15;20.90;99.90
62339;DHT22;48368;53.406;6.214;2022-07-24T08:41:45;21.00;99.90
62339;DHT22;48368;53.406;6.214;2022-07-24T08:44:10;21.10;99.90
62339;DHT22;48368;53.406;6.214;2022-07-24T08:46:37;21.10;99.90
62339;DHT22;48368;53.406;6.214;2022-07-24T08:49:07;21.30;99.90
62339;DHT22;48368;53.406;6.214;2022-07-24T08:51:37;21.40;99.90
62339;DHT22;48368;53.406;6.214;2022-07-24T08:54:04;21.60;99.90
62339;DHT22;48368;53.406;6.214;2022-07-24T08:56:29;21.80;99.90
62339;DHT22;48368;53.406;6.214;2022-07-24T08:58:55;21.80;99.90
62339;DHT22;48368;53.406;6.214;2022-07-24T09:01:21;21.90;99.90
62339;DHT22;48368;53.406;6.214;2022-07-24T09:03:47;21.90;99.90
62339;DHT22;48368;53.406;6.214;2022-07-24T09:06:14;22.10;99.90
62339;DHT22;48368;53.406;6.214;2022-07-24T09:08:59;22.20;99.90
62339;DHT22;48368;53.406;6.214;2022-07-24T09:11:26;22.30;99.90
62339;DHT22;48368;53.406;6.214;2022-07-24T09:14:00;22.30;99.90
62339;DHT22;48368;53.406;6.214;2022-07-24T09:16:44;22.50;99.90
62339;DHT22;48368;53.406;6.214;2022-07-24T09:19:10;22.80;99.90
62339;DHT22;48368;53.406;6.214;2022-07-24T09:21:40;23.10;99.90
62339;DHT22;48368;53.406;6.214;2022-07-24T09:24:17;23.20;99.90
62339;DHT22;48368;53.406;6.214;2022-07-24T09:26:51;23.20;99.90
62339;DHT22;48368;53.406;6.214;2022-07-24T09:29:18;23.40;99.90
62339;DHT22;48368;53.406;6.214;2022-07-24T09:31:59;23.70;99.90
62339;DHT22;48368;53.406;6.214;2022-07-24T09:34:28;24.00;99.90
62339;DHT22;48368;53.406;6.214;2022-07-24T09:37:05;24.20;99.90
62339;DHT22;48368;53.406;6.214;2022-07-24T09:39:33;24.40;99.90
62339;DHT22;48368;53.406;6.214;2022-07-24T09:42:00;24.20;99.90
62339;DHT22;48368;53.406;6.214;2022-07-24T09:44:29;24.20;99.90
62339;DHT22;48368;53.406;6.214;2022-07-24T09:47:04;24.20;99.90
62339;DHT22;48368;53.406;6.214;2022-07-24T09:49:30;24.50;99.90
62339;DHT22;48368;53.406;6.214;2022-07-24T09:54:33;24.80;99.90
62339;DHT22;48368;53.406;6.214;2022-07-24T09:59:40;25.20;99.90
62339;DHT22;48368;53.406;6.214;2022-07-24T10:02:07;25.40;99.90
62339;DHT22;48368;53.406;6.214;2022-07-24T10:04:34;25.50;99.90
62339;DHT22;48368;53.406;6.214;2022-07-24T10:07:02;25.60;99.90
62339;DHT22;48368;53.406;6.214;2022-07-24T10:09:29;25.60;99.90
62339;DHT22;48368;53.406;6.214;2022-07-24T10:11:57;25.60;99.90
62339;DHT22;48368;53.406;6.214;2022-07-24T10:14:24;25.70;99.90
62339;DHT22;48368;53.406;6.214;2022-07-24T10:17:04;25.90;99.90
62339;DHT22;48368;53.406;6.214;2022-07-24T10:19:39;26.10;99.90
62339;DHT22;48368;53.406;6.214;2022-07-24T10:22:10;25.90;99.90
62339;DHT22;48368;53.406;6.214;2022-07-24T10:24:47;25.70;99.90
62339;DHT22;48368;53.406;6.214;2022-07-24T10:29:49;25.50;99.90
62339;DHT22;48368;53.406;6.214;2022-07-24T10:32:17;25.40;99.90
62339;DHT22;48368;53.406;6.214;2022-07-24T10:34:46;25.50;99.90
62339;DHT22;48368;53.406;6.214;2022-07-24T10:40:13;26.20;99.90
62339;DHT22;48368;53.406;6.214;2022-07-24T10:43:07;26.30;99.90
62339;DHT22;48368;53.406;6.214;2022-07-24T10:46:23;26.10;99.90
62339;DHT22;48368;53.406;6.214;2022-07-24T10:48:26;26.10;99.90
62339;DHT22;48368;53.406;6.214;2022-07-24T10:56:18;25.80;99.90
62339;DHT22;48368;53.406;6.214;2022-07-24T10:58:57;26.10;99.90
62339;DHT22;48368;53.406;6.214;2022-07-24T11:01:29;26.30;99.90
62339;DHT22;48368;53.406;6.214;2022-07-24T11:03:54;26.20;99.90
62339;DHT22;48368;53.406;6.214;2022-07-24T11:06:47;26.50;99.90
62339;DHT22;48368;53.406;6.214;2022-07-24T11:09:13;26.50;99.90
62339;DHT22;48368;53.406;6.214;2022-07-24T11:12:02;26.40;99.90
62339;DHT22;48368;53.406;6.214;2022-07-24T11:17:38;26.40;99.90
62339;DHT22;48368;53.406;6.214;2022-07-24T11:20:07;26.30;99.90
62339;DHT22;48368;53.406;6.214;2022-07-24T11:23:17;26.40;99.90
62339;DHT22;48368;53.406;6.214;2022-07-24T11:25:31;26.10;99.90
62339;DHT22;48368;53.406;6.214;2022-07-24T11:28:18;25.90;99.90
62339;DHT22;48368;53.406;6.214;2022-07-24T11:30:45;25.80;99.90
62339;DHT22;48368;53.406;6.214;2022-07-24T11:33:12;25.80;99.90
62339;DHT22;48368;53.406;6.214;2022-07-24T11:35:42;25.90;99.90
62339;DHT22;48368;53.406;6.214;2022-07-24T11:38:09;26.00;99.90
62339;DHT22;48368;53.406;6.214;2022-07-24T11:40:35;26.20;99.90
62339;DHT22;48368;53.406;6.214;2022-07-24T11:43:04;26.40;99.90
62339;DHT22;48368;53.406;6.214;2022-07-24T11:45:31;26.50;99.90
62339;DHT22;48368;53.406;6.214;2022-07-24T11:47:57;26.20;99.90
62339;DHT22;48368;53.406;6.214;2022-07-24T11:50:27;26.20;99.90
62339;DHT22;48368;53.406;6.214;2022-07-24T11:52:53;26.30;99.90
62339;DHT22;48368;53.406;6.214;2022-07-24T11:55:21;26.30;99.90
62339;DHT22;48368;53.406;6.214;2022-07-24T11:57:49;26.20;99.90
62339;DHT22;48368;53.406;6.214;2022-07-24T12:00:18;26.20;99.90
62339;DHT22;48368;53.406;6.214;2022-07-24T12:02:49;26.20;99.90
62339;DHT22;48368;53.406;6.214;2022-07-24T12:07:50;26.10;99.90
62339;DHT22;48368;53.406;6.214;2022-07-24T12:10:19;26.20;99.90
62339;DHT22;48368;53.406;6.214;2022-07-24T12:12:47;26.30;99.90
62339;DHT22;48368;53.406;6.214;2022-07-24T12:15:14;26.30;99.90
62339;DHT22;48368;53.406;6.214;2022-07-24T12:20:36;26.70;99.90
62339;DHT22;48368;53.406;6.214;2022-07-24T12:23:07;27.00;99.90
62339;DHT22;48368;53.406;6.214;2022-07-24T12:25:33;27.00;99.90
62339;DHT22;48368;53.406;6.214;2022-07-24T12:28:14;27.20;99.90
62339;DHT22;48368;53.406;6.214;2022-07-24T12:30:45;27.10;99.90
62339;DHT22;48368;53.406;6.214;2022-07-24T12:38:32;26.90;99.90
62339;DHT22;48368;53.406;6.214;2022-07-24T12:41:13;26.70;99.90
62339;DHT22;48368;53.406;6.214;2022-07-24T12:43:56;26.70;99.90
62339;DHT22;48368;53.406;6.214;2022-07-24T12:46:29;26.60;99.90
62339;DHT22;48368;53.406;6.214;2022-07-24T12:51:26;26.40;99.90
62339;DHT22;48368;53.406;6.214;2022-07-24T12:53:54;26.40;99.90
62339;DHT22;48368;53.406;6.214;2022-07-24T12:56:20;26.60;99.90
62339;DHT22;48368;53.406;6.214;2022-07-24T12:58:51;26.60;99.90
62339;DHT22;48368;53.406;6.214;2022-07-24T13:01:17;26.60;99.90
62339;DHT22;48368;53.406;6.214;2022-07-24T13:03:48;26.70;99.90
62339;DHT22;48368;53.406;6.214;2022-07-24T13:06:15;26.70;99.90
62339;DHT22;48368;53.406;6.214;2022-07-24T13:08:44;26.70;99.90
62339;DHT22;48368;53.406;6.214;2022-07-24T13:11:10;26.60;99.90
62339;DHT22;48368;53.406;6.214;2022-07-24T13:13:35;26.50;99.90
62339;DHT22;48368;53.406;6.214;2022-07-24T13:16:01;26.50;99.90
62339;DHT22;48368;53.406;6.214;2022-07-24T13:18:28;26.70;99.90
62339;DHT22;48368;53.406;6.214;2022-07-24T13:20:54;27.00;99.90
62339;DHT22;48368;53.406;6.214;2022-07-24T13:23:19;27.20;99.90
62339;DHT22;48368;53.406;6.214;2022-07-24T13:25:45;27.10;99.90
62339;DHT22;48368;53.406;6.214;2022-07-24T13:28:13;27.10;99.90
62339;DHT22;48368;53.406;6.214;2022-07-24T13:30:38;27.20;99.90
62339;DHT22;48368;53.406;6.214;2022-07-24T13:33:04;27.30;99.90
62339;DHT22;48368;53.406;6.214;2022-07-24T13:35:30;27.50;99.90
62339;DHT22;48368;53.406;6.214;2022-07-24T13:37:55;27.70;99.90
62339;DHT22;48368;53.406;6.214;2022-07-24T13:40:21;27.70;99.90
62339;DHT22;48368;53.406;6.214;2022-07-24T13:42:47;27.90;99.90
62339;DHT22;48368;53.406;6.214;2022-07-24T13:45:12;28.00;99.90
62339;DHT22;48368;53.406;6.214;2022-07-24T13:47:41;28.00;99.90
62339;DHT22;48368;53.406;6.214;2022-07-24T13:50:07;27.80;99.90
62339;DHT22;48368;53.406;6.214;2022-07-24T13:52:33;27.90;99.90
62339;DHT22;48368;53.406;6.214;2022-07-24T13:54:58;28.00;99.90
62339;DHT22;48368;53.406;6.214;2022-07-24T13:57:24;28.10;99.90
62339;DHT22;48368;53.406;6.214;2022-07-24T13:59:50;28.00;99.90
62339;DHT22;48368;53.406;6.214;2022-07-24T14:02:16;28.10;99.90
62339;DHT22;48368;53.406;6.214;2022-07-24T14:04:41;28.10;99.90
62339;DHT22;48368;53.406;6.214;2022-07-24T14:07:09;28.00;99.90
62339;DHT22;48368;53.406;6.214;2022-07-24T14:09:34;28.00;99.90
62339;DHT22;48368;53.406;6.214;2022-07-24T14:12:00;27.90;99.90
62339;DHT22;48368;53.406;6.214;2022-07-24T14:14:26;28.00;99.90
62339;DHT22;48368;53.406;6.214;2022-07-24T14:16:51;28.20;99.90
62339;DHT22;48368;53.406;6.214;2022-07-24T14:19:19;28.30;99.90
62339;DHT22;48368;53.406;6.214;2022-07-24T14:21:45;28.30;99.90
62339;DHT22;48368;53.406;6.214;2022-07-24T14:24:12;28.30;99.90
62339;DHT22;48368;53.406;6.214;2022-07-24T14:26:38;28.30;99.90
62339;DHT22;48368;53.406;6.214;2022-07-24T14:29:04;28.20;99.90
62339;DHT22;48368;53.406;6.214;2022-07-24T14:31:30;28.20;99.90
62339;DHT22;48368;53.406;6.214;2022-07-24T14:33:55;28.20;99.90
62339;DHT22;48368;53.406;6.214;2022-07-24T14:36:21;28.20;99.90
62339;DHT22;48368;53.406;6.214;2022-07-24T14:38:47;28.20;99.90
62339;DHT22;48368;53.406;6.214;2022-07-24T14:41:12;28.20;99.90
62339;DHT22;48368;53.406;6.214;2022-07-24T14:43:38;28.20;99.90
62339;DHT22;48368;53.406;6.214;2022-07-24T14:46:04;28.00;99.90
62339;DHT22;48368;53.406;6.214;2022-07-24T14:48:29;28.00;99.90
62339;DHT22;48368;53.406;6.214;2022-07-24T14:50:55;27.90;99.90
62339;DHT22;48368;53.406;6.214;2022-07-24T14:53:20;27.90;99.90
62339;DHT22;48368;53.406;6.214;2022-07-24T14:55:46;27.90;99.90
62339;DHT22;48368;53.406;6.214;2022-07-24T14:58:12;27.80;99.90
62339;DHT22;48368;53.406;6.214;2022-07-24T15:00:37;28.00;99.90
62339;DHT22;48368;53.406;6.214;2022-07-24T15:03:03;27.90;99.90
62339;DHT22;48368;53.406;6.214;2022-07-24T15:05:28;27.90;99.90
62339;DHT22;48368;53.406;6.214;2022-07-24T15:07:54;27.90;99.90
62339;DHT22;48368;53.406;6.214;2022-07-24T15:10:20;27.90;99.90
62339;DHT22;48368;53.406;6.214;2022-07-24T15:12:45;27.80;99.90
62339;DHT22;48368;53.406;6.214;2022-07-24T15:15:11;27.90;99.90
62339;DHT22;48368;53.406;6.214;2022-07-24T15:17:36;27.80;99.90
62339;DHT22;48368;53.406;6.214;2022-07-24T15:20:02;27.90;99.90
62339;DHT22;48368;53.406;6.214;2022-07-24T15:22:28;27.90;99.90
62339;DHT22;48368;53.406;6.214;2022-07-24T15:24:53;27.80;99.90
62339;DHT22;48368;53.406;6.214;2022-07-24T15:27:19;27.80;99.90
62339;DHT22;48368;53.406;6.214;2022-07-24T15:29:45;27.70;99.90
62339;DHT22;48368;53.406;6.214;2022-07-24T15:32:10;27.70;99.90
62339;DHT22;48368;53.406;6.214;2022-07-24T15:34:36;27.70;99.90
62339;DHT22;48368;53.406;6.214;2022-07-24T15:37:01;27.70;99.90
62339;DHT22;48368;53.406;6.214;2022-07-24T15:39:27;27.70;99.90
62339;DHT22;48368;53.406;6.214;2022-07-24T15:41:53;27.70;99.90
62339;DHT22;48368;53.406;6.214;2022-07-24T15:44:19;27.70;99.90
62339;DHT22;48368;53.406;6.214;2022-07-24T15:46:45;27.70;99.90
62339;DHT22;48368;53.406;6.214;2022-07-24T15:49:10;27.60;99.90
62339;DHT22;48368;53.406;6.214;2022-07-24T15:51:36;27.50;99.90
62339;DHT22;48368;53.406;6.214;2022-07-24T15:54:02;27.50;99.90
62339;DHT22;48368;53.406;6.214;2022-07-24T15:56:28;27.40;99.90
62339;DHT22;48368;53.406;6.214;2022-07-24T15:58:53;27.30;99.90
62339;DHT22;48368;53.406;6.214;2022-07-24T16:01:19;27.20;99.90